sensor_id;sensor_type;location;lat;lon;timestamp;temperature;humidity
56729;DHT22;42612;52.232;7.560;2023-07-16T00:01:28;24.40;57.90
56729;DHT22;42612;52.232;7.560;2023-07-16T00:03:54;24.40;58.00
56729;DHT22;42612;52.232;7.560;2023-07-16T00:06:19;24.40;58.00
56729;DHT22;42612;52.232;7.560;2023-07-16T00:08:45;24.30;58.00
56729;DHT22;42612;52.232;7.560;2023-07-16T00:11:11;24.30;58.00
56729;DHT22;42612;52.232;7.560;2023-07-16T00:13:36;24.30;58.10
56729;DHT22;42612;52.232;7.560;2023-07-16T00:16:03;24.30;58.10
56729;DHT22;42612;52.232;7.560;2023-07-16T00:18:29;24.20;58.10
56729;DHT22;42612;52.232;7.560;2023-07-16T00:20:54;24.20;58.20
56729;DHT22;42612;52.232;7.560;2023-07-16T00:23:20;24.20;58.30
56729;DHT22;42612;52.232;7.560;2023-07-16T00:25:46;24.10;58.30
56729;DHT22;42612;52.232;7.560;2023-07-16T00:28:12;24.10;58.40
56729;DHT22;42612;52.232;7.560;2023-07-16T00:30:37;24.10;58.50
56729;DHT22;42612;52.232;7.560;2023-07-16T00:33:03;24.10;58.60
56729;DHT22;42612;52.232;7.560;2023-07-16T00:35:29;24.00;58.70
56729;DHT22;42612;52.232;7.560;2023-07-16T00:37:54;24.00;58.70
56729;DHT22;42612;52.232;7.560;2023-07-16T00:40:20;24.00;58.70
56729;DHT22;42612;52.232;7.560;2023-07-16T00:42:46;23.90;58.70
56729;DHT22;42612;52.232;7.560;2023-07-16T00:45:13;23.90;58.80
56729;DHT22;42612;52.232;7.560;2023-07-16T00:47:40;23.80;58.80
56729;DHT22;42612;52.232;7.560;2023-07-16T00:50:08;23.80;58.80
56729;DHT22;42612;52.232;7.560;2023-07-16T00:52:35;23.80;59.00
56729;DHT22;42612;52.232;7.560;2023-07-16T00:55:01;23.80;59.00
56729;DHT22;42612;52.232;7.560;2023-07-16T00:57:27;23.70;59.00
56729;DHT22;42612;52.232;7.560;2023-07-16T00:59:54;23.70;59.00
56729;DHT22;42612;52.232;7.560;2023-07-16T01:02:19;23.70;59.10
56729;DHT22;42612;52.232;7.560;2023-07-16T01:04:46;23.70;59.10
56729;DHT22;42612;52.232;7.560;2023-07-16T01:07:14;23.70;59.10
56729;DHT22;42612;52.232;7.560;2023-07-16T01:09:42;23.60;59.10
56729;DHT22;42612;52.232;7.560;2023-07-16T01:12:09;23.60;59.10
56729;DHT22;42612;52.232;7.560;2023-07-16T01:14:35;23.60;58.90
56729;DHT22;42612;52.232;7.560;2023-07-16T01:17:05;23.50;59.00
56729;DHT22;42612;52.232;7.560;2023-07-16T01:19:33;23.50;59.20
56729;DHT22;42612;52.232;7.560;2023-07-16T01:30:41;23.20;59.90
56729;DHT22;42612;52.232;7.560;2023-07-16T01:33:11;23.20;59.70
56729;DHT22;42612;52.232;7.560;2023-07-16T01:35:38;23.20;59.90
56729;DHT22;42612;52.232;7.560;2023-07-16T01:38:08;23.20;60.00
56729;DHT22;42612;52.232;7.560;2023-07-16T01:40:35;23.20;60.00
56729;DHT22;42612;52.232;7.560;2023-07-16T01:43:00;23.20;60.60
56729;DHT22;42612;52.232;7.560;2023-07-16T01:45:26;23.20;60.10
56729;DHT22;42612;52.232;7.560;2023-07-16T01:48:05;23.20;60.00
56729;DHT22;42612;52.232;7.560;2023-07-16T01:50:39;23.20;60.70
56729;DHT22;42612;52.232;7.560;2023-07-16T01:53:05;23.20;60.00
56729;DHT22;42612;52.232;7.560;2023-07-16T01:55:30;23.20;60.10
56729;DHT22;42612;52.232;7.560;2023-07-16T01:57:56;23.20;60.20
56729;DHT22;42612;52.232;7.560;2023-07-16T02:00:22;23.20;60.10
56729;DHT22;42612;52.232;7.560;2023-07-16T02:02:47;23.20;60.10
56729;DHT22;42612;52.232;7.560;2023-07-16T02:05:14;23.20;60.20
56729;DHT22;42612;52.232;7.560;2023-07-16T02:07:40;23.20;60.20
56729;DHT22;42612;52.232;7.560;2023-07-16T02:10:06;23.20;60.10
56729;DHT22;42612;52.232;7.560;2023-07-16T02:12:32;23.20;60.10
56729;DHT22;42612;52.232;7.560;2023-07-16T02:14:58;23.20;60.00
56729;DHT22;42612;52.232;7.560;2023-07-16T02:17:24;23.10;59.90
56729;DHT22;42612;52.232;7.560;2023-07-16T02:19:49;23.10;59.90
56729;DHT22;42612;52.232;7.560;2023-07-16T02:22:15;23.10;59.90
56729;DHT22;42612;52.232;7.560;2023-07-16T02:24:40;23.10;60.00
56729;DHT22;42612;52.232;7.560;2023-07-16T02:27:06;23.10;60.00
56729;DHT22;42612;52.232;7.560;2023-07-16T02:29:33;23.10;60.10
56729;DHT22;42612;52.232;7.560;2023-07-16T02:31:58;23.10;60.10
56729;DHT22;42612;52.232;7.560;2023-07-16T02:34:24;23.10;60.20
56729;DHT22;42612;52.232;7.560;2023-07-16T02:36:50;23.00;60.10
56729;DHT22;42612;52.232;7.560;2023-07-16T02:39:15;23.10;60.20
56729;DHT22;42612;52.232;7.560;2023-07-16T02:41:41;23.10;60.20
56729;DHT22;42612;52.232;7.560;2023-07-16T02:44:07;23.00;60.10
56729;DHT22;42612;52.232;7.560;2023-07-16T02:46:34;23.00;60.10
56729;DHT22;42612;52.232;7.560;2023-07-16T02:49:00;23.00;60.00
56729;DHT22;42612;52.232;7.560;2023-07-16T02:51:26;23.00;60.00
56729;DHT22;42612;52.232;7.560;2023-07-16T02:53:51;23.00;60.00
56729;DHT22;42612;52.232;7.560;2023-07-16T02:56:17;23.00;59.90
56729;DHT22;42612;52.232;7.560;2023-07-16T02:58:43;23.00;59.90
56729;DHT22;42612;52.232;7.560;2023-07-16T03:01:08;22.90;59.80
56729;DHT22;42612;52.232;7.560;2023-07-16T03:03:34;22.90;59.80
56729;DHT22;42612;52.232;7.560;2023-07-16T03:06:00;22.90;59.80
56729;DHT22;42612;52.232;7.560;2023-07-16T03:08:26;22.90;59.80
56729;DHT22;42612;52.232;7.560;2023-07-16T03:10:58;22.90;59.80
56729;DHT22;42612;52.232;7.560;2023-07-16T03:13:23;22.80;59.70
56729;DHT22;42612;52.232;7.560;2023-07-16T03:15:49;22.80;59.60
56729;DHT22;42612;52.232;7.560;2023-07-16T03:18:17;22.80;59.60
56729;DHT22;42612;52.232;7.560;2023-07-16T03:20:43;22.80;59.70
56729;DHT22;42612;52.232;7.560;2023-07-16T03:23:09;22.70;59.60
56729;DHT22;42612;52.232;7.560;2023-07-16T03:25:35;22.70;59.60
56729;DHT22;42612;52.232;7.560;2023-07-16T03:28:00;22.70;59.50
56729;DHT22;42612;52.232;7.560;2023-07-16T03:30:26;22.70;59.50
56729;DHT22;42612;52.232;7.560;2023-07-16T03:32:51;22.70;59.50
56729;DHT22;42612;52.232;7.560;2023-07-16T03:35:17;22.60;59.40
56729;DHT22;42612;52.232;7.560;2023-07-16T03:37:43;22.60;59.50
56729;DHT22;42612;52.232;7.560;2023-07-16T03:40:16;22.60;60.10
56729;DHT22;42612;52.232;7.560;2023-07-16T03:42:44;22.50;59.60
56729;DHT22;42612;52.232;7.560;2023-07-16T03:45:10;22.50;59.50
56729;DHT22;42612;52.232;7.560;2023-07-16T03:47:36;22.50;59.40
56729;DHT22;42612;52.232;7.560;2023-07-16T03:50:02;22.50;59.40
56729;DHT22;42612;52.232;7.560;2023-07-16T03:52:28;22.50;59.50
56729;DHT22;42612;52.232;7.560;2023-07-16T03:54:54;22.50;59.50
56729;DHT22;42612;52.232;7.560;2023-07-16T03:57:20;22.40;59.50
56729;DHT22;42612;52.232;7.560;2023-07-16T03:59:46;22.40;59.50
56729;DHT22;42612;52.232;7.560;2023-07-16T04:02:12;22.40;59.60
56729;DHT22;42612;52.232;7.560;2023-07-16T04:04:37;22.40;59.60
56729;DHT22;42612;52.232;7.560;2023-07-16T04:07:03;22.40;59.60
56729;DHT22;42612;52.232;7.560;2023-07-16T04:09:29;22.30;59.60
56729;DHT22;42612;52.232;7.560;2023-07-16T04:11:55;22.30;59.70
56729;DHT22;42612;52.232;7.560;2023-07-16T04:14:20;22.20;59.70
56729;DHT22;42612;52.232;7.560;2023-07-16T04:16:46;22.30;59.80
56729;DHT22;42612;52.232;7.560;2023-07-16T04:19:12;22.20;59.90
56729;DHT22;42612;52.232;7.560;2023-07-16T04:21:37;22.20;59.90
56729;DHT22;42612;52.232;7.560;2023-07-16T04:24:05;22.20;60.00
56729;DHT22;42612;52.232;7.560;2023-07-16T04:26:31;22.20;60.00
56729;DHT22;42612;52.232;7.560;2023-07-16T04:28:57;22.10;60.00
56729;DHT22;42612;52.232;7.560;2023-07-16T04:31:23;22.10;60.20
56729;DHT22;42612;52.232;7.560;2023-07-16T04:33:49;22.10;60.20
56729;DHT22;42612;52.232;7.560;2023-07-16T04:36:15;22.10;60.30
56729;DHT22;42612;52.232;7.560;2023-07-16T04:38:41;22.10;60.50
56729;DHT22;42612;52.232;7.560;2023-07-16T04:41:07;22.00;60.70
56729;DHT22;42612;52.232;7.560;2023-07-16T04:43:32;22.00;60.80
56729;DHT22;42612;52.232;7.560;2023-07-16T04:45:58;22.00;60.90
56729;DHT22;42612;52.232;7.560;2023-07-16T04:48:25;22.00;61.00
56729;DHT22;42612;52.232;7.560;2023-07-16T04:50:51;21.90;61.10
56729;DHT22;42612;52.232;7.560;2023-07-16T04:53:21;22.00;61.30
56729;DHT22;42612;52.232;7.560;2023-07-16T04:55:47;21.90;61.30
56729;DHT22;42612;52.232;7.560;2023-07-16T04:58:13;22.00;62.40
56729;DHT22;42612;52.232;7.560;2023-07-16T05:00:39;22.00;61.30
56729;DHT22;42612;52.232;7.560;2023-07-16T05:03:05;21.90;61.30
56729;DHT22;42612;52.232;7.560;2023-07-16T05:05:30;21.90;61.50
56729;DHT22;42612;52.232;7.560;2023-07-16T05:07:56;21.90;61.50
56729;DHT22;42612;52.232;7.560;2023-07-16T05:10:22;22.00;61.60
56729;DHT22;42612;52.232;7.560;2023-07-16T05:12:48;21.90;61.50
56729;DHT22;42612;52.232;7.560;2023-07-16T05:15:14;21.90;61.50
56729;DHT22;42612;52.232;7.560;2023-07-16T05:17:40;21.90;61.50
56729;DHT22;42612;52.232;7.560;2023-07-16T05:20:06;21.90;61.20
56729;DHT22;42612;52.232;7.560;2023-07-16T05:22:33;21.90;61.20
56729;DHT22;42612;52.232;7.560;2023-07-16T05:24:59;21.80;60.90
56729;DHT22;42612;52.232;7.560;2023-07-16T05:27:24;21.80;61.00
56729;DHT22;42612;52.232;7.560;2023-07-16T05:29:50;21.80;60.90
56729;DHT22;42612;52.232;7.560;2023-07-16T05:32:16;21.80;60.60
56729;DHT22;42612;52.232;7.560;2023-07-16T05:34:41;21.80;60.20
56729;DHT22;42612;52.232;7.560;2023-07-16T05:37:07;21.70;59.90
56729;DHT22;42612;52.232;7.560;2023-07-16T05:39:33;21.70;59.60
56729;DHT22;42612;52.232;7.560;2023-07-16T05:41:58;21.70;59.40
56729;DHT22;42612;52.232;7.560;2023-07-16T05:44:27;21.60;59.40
56729;DHT22;42612;52.232;7.560;2023-07-16T05:46:53;21.60;59.40
56729;DHT22;42612;52.232;7.560;2023-07-16T05:49:19;21.50;59.30
56729;DHT22;42612;52.232;7.560;2023-07-16T05:51:45;21.50;58.80
56729;DHT22;42612;52.232;7.560;2023-07-16T05:54:10;21.50;58.80
56729;DHT22;42612;52.232;7.560;2023-07-16T05:56:36;21.50;58.80
56729;DHT22;42612;52.232;7.560;2023-07-16T05:59:02;21.50;58.50
56729;DHT22;42612;52.232;7.560;2023-07-16T06:01:28;21.50;58.50
56729;DHT22;42612;52.232;7.560;2023-07-16T06:03:53;21.50;58.40
56729;DHT22;42612;52.232;7.560;2023-07-16T06:06:19;21.50;58.20
56729;DHT22;42612;52.232;7.560;2023-07-16T06:08:45;21.40;58.10
56729;DHT22;42612;52.232;7.560;2023-07-16T06:11:12;21.50;58.20
56729;DHT22;42612;52.232;7.560;2023-07-16T06:13:38;21.40;57.80
56729;DHT22;42612;52.232;7.560;2023-07-16T06:16:04;21.50;57.90
56729;DHT22;42612;52.232;7.560;2023-07-16T06:18:30;21.50;57.80
56729;DHT22;42612;52.232;7.560;2023-07-16T06:20:56;21.40;57.50
56729;DHT22;42612;52.232;7.560;2023-07-16T06:23:22;21.40;57.10
56729;DHT22;42612;52.232;7.560;2023-07-16T06:25:48;21.40;57.10
56729;DHT22;42612;52.232;7.560;2023-07-16T06:28:15;21.40;56.60
56729;DHT22;42612;52.232;7.560;2023-07-16T06:30:41;21.50;56.10
56729;DHT22;42612;52.232;7.560;2023-07-16T06:33:06;21.50;56.40
56729;DHT22;42612;52.232;7.560;2023-07-16T06:35:33;21.50;56.10
56729;DHT22;42612;52.232;7.560;2023-07-16T06:37:58;21.40;56.30
56729;DHT22;42612;52.232;7.560;2023-07-16T06:40:25;21.40;56.30
56729;DHT22;42612;52.232;7.560;2023-07-16T06:42:51;21.50;56.00
56729;DHT22;42612;52.232;7.560;2023-07-16T06:45:20;21.50;56.00
56729;DHT22;42612;52.232;7.560;2023-07-16T06:47:46;21.50;55.80
56729;DHT22;42612;52.232;7.560;2023-07-16T06:50:11;21.50;55.70
56729;DHT22;42612;52.232;7.560;2023-07-16T06:52:37;21.50;55.80
56729;DHT22;42612;52.232;7.560;2023-07-16T06:55:03;21.50;55.50
56729;DHT22;42612;52.232;7.560;2023-07-16T06:57:29;21.50;55.60
56729;DHT22;42612;52.232;7.560;2023-07-16T06:59:54;21.60;55.60
56729;DHT22;42612;52.232;7.560;2023-07-16T07:02:20;21.60;55.10
56729;DHT22;42612;52.232;7.560;2023-07-16T07:04:46;21.60;55.30
56729;DHT22;42612;52.232;7.560;2023-07-16T07:07:12;21.60;55.00
56729;DHT22;42612;52.232;7.560;2023-07-16T07:09:37;21.60;54.70
56729;DHT22;42612;52.232;7.560;2023-07-16T07:12:03;21.60;54.70
56729;DHT22;42612;52.232;7.560;2023-07-16T07:14:29;21.70;55.00
56729;DHT22;42612;52.232;7.560;2023-07-16T07:16:55;21.70;55.20
56729;DHT22;42612;52.232;7.560;2023-07-16T07:19:21;21.70;55.40
56729;DHT22;42612;52.232;7.560;2023-07-16T07:21:47;21.70;54.80
56729;DHT22;42612;52.232;7.560;2023-07-16T07:24:13;21.70;54.30
56729;DHT22;42612;52.232;7.560;2023-07-16T07:26:38;21.70;54.40
56729;DHT22;42612;52.232;7.560;2023-07-16T07:29:04;21.70;54.60
56729;DHT22;42612;52.232;7.560;2023-07-16T07:31:30;21.70;54.50
56729;DHT22;42612;52.232;7.560;2023-07-16T07:33:55;21.70;54.30
56729;DHT22;42612;52.232;7.560;2023-07-16T07:36:23;21.80;54.50
56729;DHT22;42612;52.232;7.560;2023-07-16T07:38:48;21.80;53.70
56729;DHT22;42612;52.232;7.560;2023-07-16T07:41:14;21.80;54.10
56729;DHT22;42612;52.232;7.560;2023-07-16T07:43:40;21.80;54.30
56729;DHT22;42612;52.232;7.560;2023-07-16T07:46:05;21.80;54.30
56729;DHT22;42612;52.232;7.560;2023-07-16T07:48:31;21.90;54.20
56729;DHT22;42612;52.232;7.560;2023-07-16T07:50:57;21.90;54.50
56729;DHT22;42612;52.232;7.560;2023-07-16T07:53:23;21.90;54.60
56729;DHT22;42612;52.232;7.560;2023-07-16T07:55:49;22.00;54.80
56729;DHT22;42612;52.232;7.560;2023-07-16T07:58:14;22.00;54.50
56729;DHT22;42612;52.232;7.560;2023-07-16T08:00:40;22.10;54.30
56729;DHT22;42612;52.232;7.560;2023-07-16T08:03:06;22.20;54.30
56729;DHT22;42612;52.232;7.560;2023-07-16T08:05:31;22.20;53.60
56729;DHT22;42612;52.232;7.560;2023-07-16T08:07:58;22.20;53.40
56729;DHT22;42612;52.232;7.560;2023-07-16T08:10:24;22.30;53.90
56729;DHT22;42612;52.232;7.560;2023-07-16T08:12:50;22.30;53.60
56729;DHT22;42612;52.232;7.560;2023-07-16T08:15:15;22.30;53.30
56729;DHT22;42612;52.232;7.560;2023-07-16T08:17:43;22.40;53.20
56729;DHT22;42612;52.232;7.560;2023-07-16T08:20:11;22.40;52.90
56729;DHT22;42612;52.232;7.560;2023-07-16T08:22:38;22.50;53.20
56729;DHT22;42612;52.232;7.560;2023-07-16T08:25:04;22.50;52.60
56729;DHT22;42612;52.232;7.560;2023-07-16T08:27:31;22.50;52.60
56729;DHT22;42612;52.232;7.560;2023-07-16T08:29:57;22.50;52.90
56729;DHT22;42612;52.232;7.560;2023-07-16T08:32:23;22.50;52.80
56729;DHT22;42612;52.232;7.560;2023-07-16T08:34:49;22.60;53.40
56729;DHT22;42612;52.232;7.560;2023-07-16T08:37:14;22.60;52.80
56729;DHT22;42612;52.232;7.560;2023-07-16T08:39:40;22.70;52.80
56729;DHT22;42612;52.232;7.560;2023-07-16T08:42:09;22.70;52.40
56729;DHT22;42612;52.232;7.560;2023-07-16T08:44:37;22.70;52.10
56729;DHT22;42612;52.232;7.560;2023-07-16T08:47:04;22.70;52.20
56729;DHT22;42612;52.232;7.560;2023-07-16T08:49:31;22.70;52.30
56729;DHT22;42612;52.232;7.560;2023-07-16T08:51:59;22.70;51.90
56729;DHT22;42612;52.232;7.560;2023-07-16T08:54:26;22.80;52.00
56729;DHT22;42612;52.232;7.560;2023-07-16T08:56:52;22.80;51.80
56729;DHT22;42612;52.232;7.560;2023-07-16T08:59:18;22.80;52.20
56729;DHT22;42612;52.232;7.560;2023-07-16T09:01:47;22.90;52.10
56729;DHT22;42612;52.232;7.560;2023-07-16T09:04:14;22.90;51.90
56729;DHT22;42612;52.232;7.560;2023-07-16T09:06:40;23.00;51.40
56729;DHT22;42612;52.232;7.560;2023-07-16T09:09:06;23.00;51.40
56729;DHT22;42612;52.232;7.560;2023-07-16T09:11:33;23.00;50.80
56729;DHT22;42612;52.232;7.560;2023-07-16T09:14:01;23.10;51.30
56729;DHT22;42612;52.232;7.560;2023-07-16T09:16:33;23.10;50.90
56729;DHT22;42612;52.232;7.560;2023-07-16T09:19:25;23.20;50.40
56729;DHT22;42612;52.232;7.560;2023-07-16T09:21:52;23.20;49.90
56729;DHT22;42612;52.232;7.560;2023-07-16T09:24:19;23.20;51.10
56729;DHT22;42612;52.232;7.560;2023-07-16T09:26:49;23.30;50.60
56729;DHT22;42612;52.232;7.560;2023-07-16T09:29:16;23.30;50.20
56729;DHT22;42612;52.232;7.560;2023-07-16T09:31:57;23.40;50.70
56729;DHT22;42612;52.232;7.560;2023-07-16T09:34:27;23.40;49.30
56729;DHT22;42612;52.232;7.560;2023-07-16T09:36:54;23.50;50.50
56729;DHT22;42612;52.232;7.560;2023-07-16T09:39:19;23.50;50.50
56729;DHT22;42612;52.232;7.560;2023-07-16T09:41:49;23.50;49.70
56729;DHT22;42612;52.232;7.560;2023-07-16T09:44:16;23.60;49.70
56729;DHT22;42612;52.232;7.560;2023-07-16T09:46:43;23.60;50.10
56729;DHT22;42612;52.232;7.560;2023-07-16T09:49:09;23.60;49.70
56729;DHT22;42612;52.232;7.560;2023-07-16T09:51:36;23.60;49.90
56729;DHT22;42612;52.232;7.560;2023-07-16T09:54:04;23.60;49.30
56729;DHT22;42612;52.232;7.560;2023-07-16T09:56:40;23.60;49.40
56729;DHT22;42612;52.232;7.560;2023-07-16T09:59:14;23.60;48.80
56729;DHT22;42612;52.232;7.560;2023-07-16T10:01:42;23.70;48.30
56729;DHT22;42612;52.232;7.560;2023-07-16T10:04:16;23.70;48.50
56729;DHT22;42612;52.232;7.560;2023-07-16T10:07:00;23.70;48.60
56729;DHT22;42612;52.232;7.560;2023-07-16T10:09:39;23.70;48.50
56729;DHT22;42612;52.232;7.560;2023-07-16T10:12:18;23.70;48.00
56729;DHT22;42612;52.232;7.560;2023-07-16T10:14:55;23.70;48.70
56729;DHT22;42612;52.232;7.560;2023-07-16T10:17:27;23.70;48.50
56729;DHT22;42612;52.232;7.560;2023-07-16T10:20:00;23.70;48.60
56729;DHT22;42612;52.232;7.560;2023-07-16T10:22:48;23.70;48.40
56729;DHT22;42612;52.232;7.560;2023-07-16T10:27:46;23.80;48.30
56729;DHT22;42612;52.232;7.560;2023-07-16T10:30:13;23.80;48.70
56729;DHT22;42612;52.232;7.560;2023-07-16T10:32:40;23.80;48.70
56729;DHT22;42612;52.232;7.560;2023-07-16T10:35:06;23.80;48.80
56729;DHT22;42612;52.232;7.560;2023-07-16T10:37:36;23.80;48.20
56729;DHT22;42612;52.232;7.560;2023-07-16T10:40:03;23.90;48.40
56729;DHT22;42612;52.232;7.560;2023-07-16T10:42:30;23.90;48.60
56729;DHT22;42612;52.232;7.560;2023-07-16T10:45:01;23.90;48.40
56729;DHT22;42612;52.232;7.560;2023-07-16T10:47:34;24.00;47.40
56729;DHT22;42612;52.232;7.560;2023-07-16T10:50:03;24.10;47.30
56729;DHT22;42612;52.232;7.560;2023-07-16T10:52:30;24.10;47.90
56729;DHT22;42612;52.232;7.560;2023-07-16T10:54:56;24.10;47.90
56729;DHT22;42612;52.232;7.560;2023-07-16T10:57:26;24.10;47.70
56729;DHT22;42612;52.232;7.560;2023-07-16T10:59:57;24.20;47.90
56729;DHT22;42612;52.232;7.560;2023-07-16T11:02:24;24.30;47.70
56729;DHT22;42612;52.232;7.560;2023-07-16T11:04:51;24.30;47.60
56729;DHT22;42612;52.232;7.560;2023-07-16T11:07:19;24.30;47.50
56729;DHT22;42612;52.232;7.560;2023-07-16T11:09:47;24.30;47.00
56729;DHT22;42612;52.232;7.560;2023-07-16T11:12:15;24.30;46.70
56729;DHT22;42612;52.232;7.560;2023-07-16T11:14:44;24.30;47.10
56729;DHT22;42612;52.232;7.560;2023-07-16T11:17:12;24.30;47.10
56729;DHT22;42612;52.232;7.560;2023-07-16T11:19:39;24.30;47.30
56729;DHT22;42612;52.232;7.560;2023-07-16T11:22:07;24.30;47.10
56729;DHT22;42612;52.232;7.560;2023-07-16T11:24:41;24.30;47.30
56729;DHT22;42612;52.232;7.560;2023-07-16T11:27:34;24.30;47.30
56729;DHT22;42612;52.232;7.560;2023-07-16T11:30:00;24.30;46.70
56729;DHT22;42612;52.232;7.560;2023-07-16T11:32:41;24.30;46.90
56729;DHT22;42612;52.232;7.560;2023-07-16T11:35:16;24.30;46.80
56729;DHT22;42612;52.232;7.560;2023-07-16T11:37:44;24.30;47.30
56729;DHT22;42612;52.232;7.560;2023-07-16T11:40:11;24.30;46.90
56729;DHT22;42612;52.232;7.560;2023-07-16T11:42:41;24.30;46.90
56729;DHT22;42612;52.232;7.560;2023-07-16T11:47:48;24.30;46.20
56729;DHT22;42612;52.232;7.560;2023-07-16T11:50:15;24.40;46.80
56729;DHT22;42612;52.232;7.560;2023-07-16T11:52:41;24.40;46.70
56729;DHT22;42612;52.232;7.560;2023-07-16T11:55:07;24.40;46.40
56729;DHT22;42612;52.232;7.560;2023-07-16T11:57:34;24.40;46.40
56729;DHT22;42612;52.232;7.560;2023-07-16T12:00:00;24.40;46.70
56729;DHT22;42612;52.232;7.560;2023-07-16T12:02:26;24.30;46.50
56729;DHT22;42612;52.232;7.560;2023-07-16T12:04:54;24.40;46.90
56729;DHT22;42612;52.232;7.560;2023-07-16T12:07:34;24.30;46.50
56729;DHT22;42612;52.232;7.560;2023-07-16T12:10:02;24.40;46.70
56729;DHT22;42612;52.232;7.560;2023-07-16T12:12:29;24.40;46.70
56729;DHT22;42612;52.232;7.560;2023-07-16T12:14:55;24.40;46.60
56729;DHT22;42612;52.232;7.560;2023-07-16T12:17:21;24.40;46.10
56729;DHT22;42612;52.232;7.560;2023-07-16T12:19:46;24.40;46.20
56729;DHT22;42612;52.232;7.560;2023-07-16T12:22:12;24.50;46.50
56729;DHT22;42612;52.232;7.560;2023-07-16T12:24:39;24.50;46.40
56729;DHT22;42612;52.232;7.560;2023-07-16T12:27:05;24.50;46.40
56729;DHT22;42612;52.232;7.560;2023-07-16T12:29:31;24.50;46.60
56729;DHT22;42612;52.232;7.560;2023-07-16T12:31:57;24.60;46.40
56729;DHT22;42612;52.232;7.560;2023-07-16T12:34:22;24.60;46.30
56729;DHT22;42612;52.232;7.560;2023-07-16T12:36:48;24.60;46.30
56729;DHT22;42612;52.232;7.560;2023-07-16T12:39:14;24.60;46.10
56729;DHT22;42612;52.232;7.560;2023-07-16T12:41:40;24.70;46.10
56729;DHT22;42612;52.232;7.560;2023-07-16T12:44:05;24.70;46.40
56729;DHT22;42612;52.232;7.560;2023-07-16T12:46:31;24.70;46.10
56729;DHT22;42612;52.232;7.560;2023-07-16T12:48:57;24.80;45.90
56729;DHT22;42612;52.232;7.560;2023-07-16T12:51:22;24.70;46.10
56729;DHT22;42612;52.232;7.560;2023-07-16T12:53:48;24.80;46.00
56729;DHT22;42612;52.232;7.560;2023-07-16T12:56:14;24.80;46.10
56729;DHT22;42612;52.232;7.560;2023-07-16T12:58:39;24.80;45.60
56729;DHT22;42612;52.232;7.560;2023-07-16T13:01:05;24.90;45.60
56729;DHT22;42612;52.232;7.560;2023-07-16T13:03:31;24.90;45.70
56729;DHT22;42612;52.232;7.560;2023-07-16T13:05:56;24.90;45.60
56729;DHT22;42612;52.232;7.560;2023-07-16T13:08:22;24.90;45.30
56729;DHT22;42612;52.232;7.560;2023-07-16T13:10:48;25.00;45.70
56729;DHT22;42612;52.232;7.560;2023-07-16T13:13:13;25.00;45.60
56729;DHT22;42612;52.232;7.560;2023-07-16T13:15:39;25.00;45.50
56729;DHT22;42612;52.232;7.560;2023-07-16T13:18:05;25.00;45.50
56729;DHT22;42612;52.232;7.560;2023-07-16T13:20:30;24.90;45.40
56729;DHT22;42612;52.232;7.560;2023-07-16T13:22:56;24.90;45.80
56729;DHT22;42612;52.232;7.560;2023-07-16T13:25:22;24.90;45.80
56729;DHT22;42612;52.232;7.560;2023-07-16T13:27:48;25.00;45.90
56729;DHT22;42612;52.232;7.560;2023-07-16T13:30:14;25.00;45.80
56729;DHT22;42612;52.232;7.560;2023-07-16T13:32:40;25.10;45.90
56729;DHT22;42612;52.232;7.560;2023-07-16T13:35:06;25.10;45.60
56729;DHT22;42612;52.232;7.560;2023-07-16T13:37:32;25.20;45.20
56729;DHT22;42612;52.232;7.560;2023-07-16T13:39:58;25.20;45.30
56729;DHT22;42612;52.232;7.560;2023-07-16T13:42:23;25.30;45.50
56729;DHT22;42612;52.232;7.560;2023-07-16T13:44:49;25.30;45.40
56729;DHT22;42612;52.232;7.560;2023-07-16T13:47:15;25.40;45.00
56729;DHT22;42612;52.232;7.560;2023-07-16T13:49:40;25.40;45.20
56729;DHT22;42612;52.232;7.560;2023-07-16T13:52:06;25.50;45.20
56729;DHT22;42612;52.232;7.560;2023-07-16T13:54:32;25.60;45.30
56729;DHT22;42612;52.232;7.560;2023-07-16T13:56:57;25.70;45.30
56729;DHT22;42612;52.232;7.560;2023-07-16T13:59:23;25.70;45.30
56729;DHT22;42612;52.232;7.560;2023-07-16T14:01:59;25.80;45.00
56729;DHT22;42612;52.232;7.560;2023-07-16T14:04:29;25.80;44.30
56729;DHT22;42612;52.232;7.560;2023-07-16T14:06:55;25.80;44.70
56729;DHT22;42612;52.232;7.560;2023-07-16T14:09:22;25.80;44.60
56729;DHT22;42612;52.232;7.560;2023-07-16T14:11:47;25.90;44.30
56729;DHT22;42612;52.232;7.560;2023-07-16T14:14:14;25.80;44.10
56729;DHT22;42612;52.232;7.560;2023-07-16T14:16:40;25.80;44.00
56729;DHT22;42612;52.232;7.560;2023-07-16T14:19:06;25.80;44.00
56729;DHT22;42612;52.232;7.560;2023-07-16T14:21:32;25.80;44.50
56729;DHT22;42612;52.232;7.560;2023-07-16T14:23:58;25.80;43.90
56729;DHT22;42612;52.232;7.560;2023-07-16T14:26:23;25.90;44.40
56729;DHT22;42612;52.232;7.560;2023-07-16T14:28:49;25.90;44.70
56729;DHT22;42612;52.232;7.560;2023-07-16T14:31:15;26.00;44.40
56729;DHT22;42612;52.232;7.560;2023-07-16T14:33:40;26.10;44.20
56729;DHT22;42612;52.232;7.560;2023-07-16T14:36:06;26.20;43.70
56729;DHT22;42612;52.232;7.560;2023-07-16T14:38:32;26.30;43.80
56729;DHT22;42612;52.232;7.560;2023-07-16T14:40:58;26.30;43.40
56729;DHT22;42612;52.232;7.560;2023-07-16T14:43:25;26.40;43.30
56729;DHT22;42612;52.232;7.560;2023-07-16T14:45:51;26.50;44.20
56729;DHT22;42612;52.232;7.560;2023-07-16T14:48:16;26.60;43.40
56729;DHT22;42612;52.232;7.560;2023-07-16T14:50:42;26.60;43.20
56729;DHT22;42612;52.232;7.560;2023-07-16T14:53:08;26.70;43.10
56729;DHT22;42612;52.232;7.560;2023-07-16T14:55:33;26.70;42.60
56729;DHT22;42612;52.232;7.560;2023-07-16T14:57:59;26.70;43.30
56729;DHT22;42612;52.232;7.560;2023-07-16T15:00:25;26.80;43.00
56729;DHT22;42612;52.232;7.560;2023-07-16T15:02:51;26.80;42.50
56729;DHT22;42612;52.232;7.560;2023-07-16T15:05:17;26.80;42.40
56729;DHT22;42612;52.232;7.560;2023-07-16T15:07:43;26.80;42.40
56729;DHT22;42612;52.232;7.560;2023-07-16T15:10:09;26.80;42.10
56729;DHT22;42612;52.232;7.560;2023-07-16T15:12:35;26.70;41.90
56729;DHT22;42612;52.232;7.560;2023-07-16T15:15:01;26.70;41.90
56729;DHT22;42612;52.232;7.560;2023-07-16T15:17:27;26.60;41.80
56729;DHT22;42612;52.232;7.560;2023-07-16T15:19:53;26.50;41.80
56729;DHT22;42612;52.232;7.560;2023-07-16T15:22:18;26.50;42.20
56729;DHT22;42612;52.232;7.560;2023-07-16T15:24:46;26.40;42.40
56729;DHT22;42612;52.232;7.560;2023-07-16T15:27:12;26.40;42.30
56729;DHT22;42612;52.232;7.560;2023-07-16T15:29:38;26.30;42.30
56729;DHT22;42612;52.232;7.560;2023-07-16T15:32:05;26.30;42.50
56729;DHT22;42612;52.232;7.560;2023-07-16T15:34:32;26.20;42.50
56729;DHT22;42612;52.232;7.560;2023-07-16T15:36:57;26.20;43.00
56729;DHT22;42612;52.232;7.560;2023-07-16T15:39:23;26.20;43.20
56729;DHT22;42612;52.232;7.560;2023-07-16T15:41:49;26.20;43.00